Time;durP1;ratioP1;P1;durP2;ratioP2;P2;SDS_P1;SDS_P2;PMS_P1;PMS_P2;Temp;Humidity;BMP_temperature;BMP_pressure;BME280_temperature;BME280_humidity;BME280_pressure;Samples;Min_cycle;Max_cycle;Signal;HPM_P1;HPM_P2
2022/06/21 00:00:14;;;;;;;;;;;27.10;34.30;;;;;;5097931;28;1825;-37
2022/06/21 00:02:41;;;;;;;;;;;27.10;34.40;;;;;;5098426;28;1088;-37
2022/06/21 00:05:13;;;;;;;;;;;27.10;34.30;;;;;;5098441;28;1043;-39
2022/06/21 00:07:39;;;;;;;;;;;27.20;34.40;;;;;;5098662;28;1181;-37
2022/06/21 00:10:06;;;;;;;;;;;27.10;34.50;;;;;;5098185;28;1984;-37
2022/06/21 00:12:33;;;;;;;;;;;27.20;34.40;;;;;;5098377;28;976;-38
2022/06/21 00:15:00;;;;;;;;;;;27.20;34.50;;;;;;5097954;28;916;-37
2022/06/21 00:17:26;;;;;;;;;;;27.20;34.40;;;;;;5097951;28;1012;-39
2022/06/21 00:19:53;;;;;;;;;;;27.20;34.50;;;;;;5097292;28;993;-37
2022/06/21 00:22:21;;;;;;;;;;;27.30;34.60;;;;;;5097817;28;937;-37
2022/06/21 00:24:48;;;;;;;;;;;27.30;34.50;;;;;;5098209;28;889;-37
2022/06/21 00:27:15;;;;;;;;;;;27.40;34.50;;;;;;5098560;28;925;-38
2022/06/21 00:29:43;;;;;;;;;;;27.40;34.30;;;;;;5097702;28;1967;-36
2022/06/21 00:32:12;;;;;;;;;;;27.50;34.40;;;;;;5097984;28;1122;-37
2022/06/21 00:34:38;;;;;;;;;;;27.40;34.50;;;;;;5096683;28;1016;-37
2022/06/21 00:37:05;;;;;;;;;;;27.30;34.60;;;;;;5097922;28;935;-37
2022/06/21 00:39:33;;;;;;;;;;;27.30;34.80;;;;;;5098487;28;1012;-39
2022/06/21 00:42:04;;;;;;;;;;;27.40;34.70;;;;;;5097775;28;979;-37
2022/06/21 00:44:33;;;;;;;;;;;27.40;34.70;;;;;;5098050;28;1001;-37
2022/06/21 00:47:03;;;;;;;;;;;27.40;34.70;;;;;;5098144;28;976;-37
2022/06/21 00:49:31;;;;;;;;;;;27.40;34.80;;;;;;5098142;28;1961;-38
2022/06/21 00:52:02;;;;;;;;;;;27.40;34.70;;;;;;5097953;28;977;-38
2022/06/21 00:54:31;;;;;;;;;;;27.40;34.80;;;;;;5098190;28;996;-37
2022/06/21 00:57:02;;;;;;;;;;;27.50;34.70;;;;;;5097796;28;959;-39
2022/06/21 00:59:29;;;;;;;;;;;27.50;34.70;;;;;;5096802;28;939;-37
2022/06/21 01:01:58;;;;;;;;;;;27.60;34.70;;;;;;5098137;28;968;-37
2022/06/21 01:04:28;;;;;;;;;;;27.60;34.60;;;;;;5096377;28;912;-37
2022/06/21 01:06:56;;;;;;;;;;;27.70;34.40;;;;;;5096942;28;1050;-37
2022/06/21 01:09:26;;;;;;;;;;;27.60;34.50;;;;;;5097445;28;845;-38
2022/06/21 01:11:55;;;;;;;;;;;27.60;34.70;;;;;;5096971;28;1902;-40
2022/06/21 01:14:24;;;;;;;;;;;27.50;34.80;;;;;;5098515;28;1004;-38
2022/06/21 01:16:51;;;;;;;;;;;27.50;34.80;;;;;;5101496;28;1037;-37
2022/06/21 01:19:21;;;;;;;;;;;27.40;34.90;;;;;;5100609;28;976;-37
2022/06/21 01:21:51;;;;;;;;;;;27.50;35.00;;;;;;5100967;28;1024;-36
2022/06/21 01:24:22;;;;;;;;;;;27.50;35.10;;;;;;5100595;28;1009;-37
2022/06/21 01:26:52;;;;;;;;;;;27.50;35.00;;;;;;5101264;28;1016;-37
2022/06/21 01:29:19;;;;;;;;;;;27.50;34.90;;;;;;5100649;28;1052;-38
2022/06/21 01:31:47;;;;;;;;;;;27.50;35.00;;;;;;5100373;28;1984;-37
2022/06/21 01:34:15;;;;;;;;;;;27.50;35.00;;;;;;5100321;28;1002;-38
2022/06/21 01:36:42;;;;;;;;;;;27.50;34.90;;;;;;5099666;28;1024;-37
2022/06/21 01:39:10;;;;;;;;;;;27.50;35.00;;;;;;5099886;28;988;-37
2022/06/21 01:41:40;;;;;;;;;;;27.60;35.00;;;;;;5100408;28;932;-38
2022/06/21 01:44:10;;;;;;;;;;;27.40;35.00;;;;;;5100615;28;947;-37
2022/06/21 01:46:36;;;;;;;;;;;27.60;35.00;;;;;;5101436;28;1004;-37
2022/06/21 01:49:06;;;;;;;;;;;27.50;34.90;;;;;;5101286;28;940;-36
2022/06/21 01:51:35;;;;;;;;;;;27.50;36.10;;;;;;5101380;28;1985;-37
2022/06/21 01:54:04;;;;;;;;;;;27.40;35.00;;;;;;5100579;28;987;-36
2022/06/21 01:56:34;;;;;;;;;;;27.40;35.40;;;;;;5100770;28;988;-36
2022/06/21 01:59:03;;;;;;;;;;;27.50;35.20;;;;;;5101149;28;948;-36
2022/06/21 02:04:46;;;;;;;;;;;27.40;34.30;;;;;;5100291;28;672;-36
2022/06/21 02:07:17;;;;;;;;;;;27.20;34.10;;;;;;5100289;28;1008;-35
2022/06/21 02:09:46;;;;;;;;;;;27.10;34.10;;;;;;5101038;28;971;-36
2022/06/21 02:12:14;;;;;;;;;;;27.10;34.20;;;;;;5100877;28;1902;-38
2022/06/21 02:14:43;;;;;;;;;;;27.00;34.00;;;;;;5100508;28;925;-37
2022/06/21 02:17:13;;;;;;;;;;;26.90;34.10;;;;;;5100677;28;997;-36
2022/06/21 02:19:41;;;;;;;;;;;26.90;34.20;;;;;;5100700;28;959;-37
2022/06/21 02:22:13;;;;;;;;;;;26.80;34.10;;;;;;5100339;28;955;-44
2022/06/21 02:24:40;;;;;;;;;;;26.70;34.10;;;;;;5099904;28;1015;-44
2022/06/21 02:27:07;;;;;;;;;;;26.70;34.10;;;;;;5099864;28;956;-44
2022/06/21 02:29:35;;;;;;;;;;;26.70;34.20;;;;;;5099785;28;1019;-44
2022/06/21 02:32:02;;;;;;;;;;;26.70;34.10;;;;;;5099681;28;1905;-46
2022/06/21 02:34:31;;;;;;;;;;;26.80;34.00;;;;;;5099666;28;1811;-47
2022/06/21 02:36:59;;;;;;;;;;;26.70;34.00;;;;;;5100315;28;938;-47
2022/06/21 02:39:28;;;;;;;;;;;26.70;34.00;;;;;;5099487;28;964;-47
2022/06/21 02:41:57;;;;;;;;;;;26.60;34.00;;;;;;5099774;28;980;-46
2022/06/21 02:44:25;;;;;;;;;;;26.70;34.00;;;;;;5099645;28;980;-44
2022/06/21 02:46:53;;;;;;;;;;;26.70;34.10;;;;;;5099916;28;1012;-45
2022/06/21 02:49:22;;;;;;;;;;;26.80;34.00;;;;;;5100194;28;1011;-40
2022/06/21 02:51:52;;;;;;;;;;;26.70;33.90;;;;;;5099376;28;1979;-38
2022/06/21 02:54:22;;;;;;;;;;;26.60;35.10;;;;;;5099189;28;983;-36
2022/06/21 02:56:54;;;;;;;;;;;26.60;33.80;;;;;;5099433;28;944;-36
2022/06/21 03:02:44;;;;;;;;;;;26.60;34.20;;;;;;5098878;28;993;-37
2022/06/21 03:05:13;;;;;;;;;;;26.40;34.20;;;;;;5099083;28;932;-37
2022/06/21 03:07:42;;;;;;;;;;;26.50;34.40;;;;;;5098836;28;1020;-36
2022/06/21 03:10:15;;;;;;;;;;;26.40;34.30;;;;;;5099613;28;989;-36
2022/06/21 03:12:43;;;;;;;;;;;26.50;34.50;;;;;;5098868;28;887;-36
2022/06/21 03:15:12;;;;;;;;;;;26.40;34.50;;;;;;5098144;28;996;-37
2022/06/21 03:17:40;;;;;;;;;;;26.50;34.60;;;;;;5098785;28;940;-36
2022/06/21 03:20:11;;;;;;;;;;;26.30;34.70;;;;;;5098665;28;976;-37
2022/06/21 03:22:38;;;;;;;;;;;26.30;34.70;;;;;;5097797;28;1041;-39
2022/06/21 03:25:08;;;;;;;;;;;26.30;34.70;;;;;;5098253;28;932;-37
2022/06/21 03:27:36;;;;;;;;;;;26.30;34.70;;;;;;5098137;28;993;-37
2022/06/21 03:30:06;;;;;;;;;;;26.40;34.70;;;;;;5097813;28;947;-37
2022/06/21 03:32:35;;;;;;;;;;;26.30;34.70;;;;;;5097750;28;1910;-37
2022/06/21 03:35:02;;;;;;;;;;;26.20;34.70;;;;;;5097919;28;900;-37
2022/06/21 03:37:29;;;;;;;;;;;26.10;34.80;;;;;;5096562;28;1014;-36
2022/06/21 03:42:42;;;;;;;;;;;26.00;35.00;;;;;;5097289;28;872;-37
2022/06/21 03:45:14;;;;;;;;;;;25.90;35.10;;;;;;5096673;28;1426;-38
2022/06/21 03:47:43;;;;;;;;;;;25.90;35.00;;;;;;5096486;28;973;-38
2022/06/21 03:50:12;;;;;;;;;;;25.90;35.10;;;;;;5095534;28;1027;-39
2022/06/21 03:52:44;;;;;;;;;;;26.00;34.70;;;;;;5096181;28;1984;-38
2022/06/21 03:55:17;;;;;;;;;;;26.00;34.80;;;;;;5096829;28;1016;-36
2022/06/21 03:57:56;;;;;;;;;;;25.90;34.80;;;;;;5097395;28;894;-38
2022/06/21 04:00:25;;;;;;;;;;;25.90;34.60;;;;;;5097050;28;860;-38
2022/06/21 04:02:55;;;;;;;;;;;25.80;34.70;;;;;;5098081;28;1059;-36
2022/06/21 04:05:25;;;;;;;;;;;25.80;34.80;;;;;;5098201;28;1024;-38
2022/06/21 04:07:55;;;;;;;;;;;25.80;35.00;;;;;;5096593;28;1039;-36
2022/06/21 04:10:24;;;;;;;;;;;25.80;34.70;;;;;;5096062;28;1000;-36
2022/06/21 04:12:53;;;;;;;;;;;25.90;34.60;;;;;;5095588;28;1975;-36
2022/06/21 04:15:24;;;;;;;;;;;25.90;34.60;;;;;;5097010;28;988;-37
2022/06/21 04:17:56;;;;;;;;;;;26.00;34.60;;;;;;5097260;28;939;-37
2022/06/21 04:20:27;;;;;;;;;;;26.00;34.50;;;;;;5096598;28;971;-36
2022/06/21 04:22:57;;;;;;;;;;;26.00;34.50;;;;;;5096489;28;968;-36
2022/06/21 04:25:27;;;;;;;;;;;26.00;34.60;;;;;;5095776;28;952;-36
2022/06/21 04:27:57;;;;;;;;;;;26.00;34.50;;;;;;5096076;28;1002;-36
2022/06/21 04:30:26;;;;;;;;;;;26.00;34.50;;;;;;5097010;28;1015;-37
2022/06/21 04:32:57;;;;;;;;;;;26.10;34.50;;;;;;5096840;28;1996;-36
2022/06/21 04:35:26;;;;;;;;;;;26.20;34.60;;;;;;5097851;28;983;-38
2022/06/21 04:37:55;;;;;;;;;;;26.20;34.40;;;;;;5096508;28;968;-36
2022/06/21 04:40:24;;;;;;;;;;;26.30;34.60;;;;;;5096069;28;961;-37
2022/06/21 04:42:55;;;;;;;;;;;26.30;34.70;;;;;;5096466;28;1035;-36
2022/06/21 04:45:27;;;;;;;;;;;26.10;34.50;;;;;;5096687;28;940;-36
2022/06/21 04:48:03;;;;;;;;;;;26.00;36.20;;;;;;5094382;28;973;-37
2022/06/21 04:50:33;;;;;;;;;;;25.90;35.30;;;;;;5098005;28;972;-37
2022/06/21 04:53:03;;;;;;;;;;;25.80;35.40;;;;;;5098703;28;2168;-37
2022/06/21 04:55:34;;;;;;;;;;;26.00;35.40;;;;;;5098179;28;944;-38
2022/06/21 04:58:01;;;;;;;;;;;25.90;35.50;;;;;;5099053;28;937;-36
2022/06/21 05:00:28;;;;;;;;;;;25.80;35.60;;;;;;5097576;28;842;-36
2022/06/21 05:02:58;;;;;;;;;;;25.90;35.60;;;;;;5097835;28;1213;-36
2022/06/21 05:05:26;;;;;;;;;;;25.90;35.70;;;;;;5097568;28;936;-36
2022/06/21 05:07:54;;;;;;;;;;;25.80;35.80;;;;;;5096370;28;1269;-36
2022/06/21 05:10:23;;;;;;;;;;;25.90;35.80;;;;;;5095791;28;992;-39
2022/06/21 05:12:50;;;;;;;;;;;25.80;36.00;;;;;;5095962;28;1999;-37
2022/06/21 05:15:18;;;;;;;;;;;25.90;36.10;;;;;;5098453;28;943;-36
2022/06/21 05:17:48;;;;;;;;;;;25.90;36.20;;;;;;5097591;28;1042;-36
2022/06/21 05:20:20;;;;;;;;;;;25.80;36.40;;;;;;5096970;28;1012;-37
2022/06/21 05:22:48;;;;;;;;;;;25.90;36.30;;;;;;5095260;28;1008;-36
2022/06/21 05:25:19;;;;;;;;;;;25.90;36.20;;;;;;5095982;28;951;-37
2022/06/21 05:27:48;;;;;;;;;;;25.90;36.40;;;;;;5094148;28;1003;-36
2022/06/21 05:30:17;;;;;;;;;;;25.90;36.50;;;;;;5094843;28;1002;-36
2022/06/21 05:32:46;;;;;;;;;;;25.90;36.60;;;;;;5095395;28;1972;-36
2022/06/21 05:35:17;;;;;;;;;;;26.00;36.50;;;;;;5095811;28;884;-36
2022/06/21 05:37:51;;;;;;;;;;;26.00;36.50;;;;;;5095803;28;998;-36
2022/06/21 05:40:23;;;;;;;;;;;26.10;36.50;;;;;;5096606;28;964;-36
2022/06/21 05:42:50;;;;;;;;;;;25.90;36.60;;;;;;5096505;28;949;-36
2022/06/21 05:45:17;;;;;;;;;;;26.00;36.70;;;;;;5098151;28;996;-38
2022/06/21 05:47:45;;;;;;;;;;;25.90;36.60;;;;;;5095871;28;998;-36
2022/06/21 05:50:14;;;;;;;;;;;25.90;36.80;;;;;;5097779;28;1003;-36
2022/06/21 05:52:42;;;;;;;;;;;26.00;36.70;;;;;;5097205;28;1902;-37
2022/06/21 05:55:13;;;;;;;;;;;26.10;37.10;;;;;;5097051;28;927;-37
2022/06/21 05:57:41;;;;;;;;;;;26.20;36.70;;;;;;5096036;28;1054;-38
2022/06/21 06:00:14;;;;;;;;;;;26.20;36.80;;;;;;5096896;28;996;-37
2022/06/21 06:02:44;;;;;;;;;;;26.20;36.80;;;;;;5097709;28;1011;-37
2022/06/21 06:05:13;;;;;;;;;;;26.30;36.60;;;;;;5098799;28;1066;-39
2022/06/21 06:07:43;;;;;;;;;;;26.40;36.50;;;;;;5097371;28;1023;-38
2022/06/21 06:10:11;;;;;;;;;;;26.40;36.30;;;;;;5098059;28;929;-39
2022/06/21 06:12:40;;;;;;;;;;;26.50;36.20;;;;;;5097363;28;1997;-36
2022/06/21 06:15:08;;;;;;;;;;;26.50;36.10;;;;;;5097347;28;1040;-38
2022/06/21 06:17:39;;;;;;;;;;;26.50;36.00;;;;;;5097107;28;951;-37
2022/06/21 06:20:12;;;;;;;;;;;26.50;36.10;;;;;;5097642;28;992;-37
2022/06/21 06:22:43;;;;;;;;;;;26.60;36.10;;;;;;5097249;28;1008;-36
2022/06/21 06:25:14;;;;;;;;;;;26.60;35.90;;;;;;5097977;28;1000;-37
2022/06/21 06:27:45;;;;;;;;;;;26.60;35.80;;;;;;5097631;28;1007;-38
2022/06/21 06:30:14;;;;;;;;;;;26.60;35.90;;;;;;5096274;28;976;-38
2022/06/21 06:32:43;;;;;;;;;;;26.50;35.80;;;;;;5094574;28;1897;-38
2022/06/21 06:35:14;;;;;;;;;;;26.60;37.00;;;;;;5096008;28;905;-37
2022/06/21 06:37:42;;;;;;;;;;;26.60;35.70;;;;;;5095040;28;988;-42
2022/06/21 06:40:20;;;;;;;;;;;26.70;35.60;;;;;;5097384;28;941;-42
2022/06/21 06:42:49;;;;;;;;;;;26.70;35.60;;;;;;5095817;28;924;-42
2022/06/21 06:45:18;;;;;;;;;;;26.60;35.60;;;;;;5096974;28;1026;-42
2022/06/21 06:47:48;;;;;;;;;;;26.70;35.60;;;;;;5096288;28;1002;-42
2022/06/21 06:50:17;;;;;;;;;;;26.60;35.60;;;;;;5095071;28;993;-42
2022/06/21 06:52:48;;;;;;;;;;;26.70;35.60;;;;;;5095127;28;1984;-43
2022/06/21 06:55:17;;;;;;;;;;;26.70;35.50;;;;;;5096688;28;991;-43
2022/06/21 06:57:46;;;;;;;;;;;26.70;35.60;;;;;;5096056;28;1006;-42
2022/06/21 07:00:18;;;;;;;;;;;26.60;35.50;;;;;;5095692;28;1031;-42
2022/06/21 07:02:46;;;;;;;;;;;26.60;35.50;;;;;;5087480;28;1019;-43
2022/06/21 07:05:15;;;;;;;;;;;26.60;35.70;;;;;;5072660;28;826;-42
2022/06/21 07:07:45;;;;;;;;;;;26.60;35.80;;;;;;5071188;28;1019;-42
2022/06/21 07:10:14;;;;;;;;;;;26.50;35.90;;;;;;5070269;28;992;-45
2022/06/21 07:12:41;;;;;;;;;;;26.50;36.00;;;;;;5071845;28;1971;-44
2022/06/21 07:15:09;;;;;;;;;;;26.50;36.00;;;;;;5086577;28;940;-45
2022/06/21 07:17:38;;;;;;;;;;;26.50;36.00;;;;;;5082840;28;1795;-44
2022/06/21 07:20:13;;;;;;;;;;;26.50;36.00;;;;;;5078876;28;870;-42
2022/06/21 07:22:40;;;;;;;;;;;26.50;36.00;;;;;;5095185;28;932;-42
2022/06/21 07:25:13;;;;;;;;;;;26.50;36.10;;;;;;5076415;28;1005;-43
2022/06/21 07:27:42;;;;;;;;;;;26.50;35.90;;;;;;5070630;28;1002;-43
2022/06/21 07:30:11;;;;;;;;;;;26.60;35.70;;;;;;5083608;28;919;-43
2022/06/21 07:32:41;;;;;;;;;;;26.70;35.70;;;;;;5084534;28;1979;-43
2022/06/21 07:35:10;;;;;;;;;;;26.70;35.70;;;;;;5069839;28;888;-42
2022/06/21 07:37:39;;;;;;;;;;;26.70;35.80;;;;;;5070856;28;1005;-43
2022/06/21 07:40:09;;;;;;;;;;;26.70;35.70;;;;;;5093367;28;999;-42
2022/06/21 07:42:41;;;;;;;;;;;26.70;35.60;;;;;;5094796;28;1015;-41
2022/06/21 07:45:11;;;;;;;;;;;26.90;35.70;;;;;;5094730;28;952;-40
2022/06/21 07:47:42;;;;;;;;;;;26.70;35.80;;;;;;5094465;28;1043;-41
2022/06/21 07:50:10;;;;;;;;;;;26.70;36.00;;;;;;5093700;28;1031;-41
2022/06/21 07:52:40;;;;;;;;;;;26.60;36.10;;;;;;5093695;28;1894;-39
2022/06/21 07:55:11;;;;;;;;;;;26.70;36.00;;;;;;5095684;28;1048;-42
2022/06/21 07:57:40;;;;;;;;;;;26.80;35.80;;;;;;5094533;28;940;-41
2022/06/21 08:00:13;;;;;;;;;;;26.90;35.70;;;;;;5094557;28;973;-42
2022/06/21 08:08:23;;;;;;;;;;;27.00;35.40;;;;;;5094714;28;881;-43
2022/06/21 08:10:52;;;;;;;;;;;27.00;35.50;;;;;;5095322;28;1030;-41
2022/06/21 08:13:18;;;;;;;;;;;26.90;35.40;;;;;;5094224;28;1914;-43
2022/06/21 08:15:48;;;;;;;;;;;26.90;35.10;;;;;;5094852;28;1042;-40
2022/06/21 08:18:21;;;;;;;;;;;26.90;35.30;;;;;;5093707;28;940;-40
2022/06/21 08:20:50;;;;;;;;;;;26.90;35.30;;;;;;5094211;28;925;-44
2022/06/21 08:23:19;;;;;;;;;;;26.90;35.30;;;;;;5095499;28;971;-43
2022/06/21 08:25:49;;;;;;;;;;;26.90;35.30;;;;;;5099583;28;972;-38
2022/06/21 08:28:19;;;;;;;;;;;26.80;35.40;;;;;;5098815;28;1019;-40
2022/06/21 08:30:47;;;;;;;;;;;26.90;35.20;;;;;;5098877;28;1012;-38
2022/06/21 08:33:18;;;;;;;;;;;26.90;35.40;;;;;;5097962;28;1980;-37
2022/06/21 08:35:49;;;;;;;;;;;27.00;35.40;;;;;;5097901;28;1003;-37
2022/06/21 08:38:21;;;;;;;;;;;26.90;35.20;;;;;;5098807;28;1042;-39
2022/06/21 08:41:05;;;;;;;;;;;26.90;35.30;;;;;;5097284;28;968;-43
2022/06/21 08:43:50;;;;;;;;;;;26.90;34.90;;;;;;5098482;28;1017;-41
2022/06/21 08:46:32;;;;;;;;;;;27.00;35.10;;;;;;5097950;28;1020;-42
2022/06/21 08:49:04;;;;;;;;;;;26.90;35.00;;;;;;5054227;28;1018;-40
2022/06/21 08:51:51;;;;;;;;;;;26.80;35.00;;;;;;5097485;28;908;-43
2022/06/21 08:54:25;;;;;;;;;;;26.90;35.10;;;;;;5098873;28;1878;-41
2022/06/21 08:56:56;;;;;;;;;;;26.90;35.00;;;;;;5097957;28;933;-39
2022/06/21 08:59:27;;;;;;;;;;;27.00;34.50;;;;;;5096892;28;1011;-37
2022/06/21 09:01:58;;;;;;;;;;;26.90;34.60;;;;;;5096836;28;952;-37
2022/06/21 09:04:29;;;;;;;;;;;26.90;34.10;;;;;;5097891;28;1007;-41
2022/06/21 09:07:12;;;;;;;;;;;27.00;34.20;;;;;;5096406;28;1012;-37
2022/06/21 09:09:49;;;;;;;;;;;27.00;34.00;;;;;;5096433;28;1001;-37
2022/06/21 09:12:22;;;;;;;;;;;27.00;33.60;;;;;;5094972;28;1996;-37
2022/06/21 09:15:06;;;;;;;;;;;26.80;33.80;;;;;;5097521;28;1127;-44
2022/06/21 09:17:39;;;;;;;;;;;26.90;34.10;;;;;;5095606;28;1766;-44
2022/06/21 09:20:13;;;;;;;;;;;26.90;33.40;;;;;;5095438;28;895;-46
2022/06/21 09:22:46;;;;;;;;;;;26.90;33.50;;;;;;5096407;28;988;-45
2022/06/21 09:25:16;;;;;;;;;;;27.00;33.40;;;;;;5096250;28;1050;-44
2022/06/21 09:27:46;;;;;;;;;;;27.10;33.00;;;;;;5096119;28;998;-45
